sensor_id;sensor_type;location;lat;lon;timestamp;pressure;altitude;pressure_sealevel;temperature;humidity
55010;BME280;40903;51.638;7.528;2023-05-12T00:02:00;100831.44;;;13.99;100.00
55010;BME280;40903;51.638;7.528;2023-05-12T00:04:25;100832.28;;;13.99;100.00
55010;BME280;40903;51.638;7.528;2023-05-12T00:06:50;100831.78;;;13.97;100.00
55010;BME280;40903;51.638;7.528;2023-05-12T00:09:16;100830.25;;;13.91;100.00
55010;BME280;40903;51.638;7.528;2023-05-12T00:11:41;100835.44;;;13.93;100.00
55010;BME280;40903;51.638;7.528;2023-05-12T00:14:06;100829.75;;;13.89;100.00
55010;BME280;40903;51.638;7.528;2023-05-12T00:16:31;100826.19;;;13.89;100.00
55010;BME280;40903;51.638;7.528;2023-05-12T00:18:56;100835.88;;;13.86;100.00
55010;BME280;40903;51.638;7.528;2023-05-12T00:21:22;100835.38;;;13.84;100.00
55010;BME280;40903;51.638;7.528;2023-05-12T00:23:47;100834.75;;;13.87;100.00
55010;BME280;40903;51.638;7.528;2023-05-12T00:26:12;100839.81;;;13.80;100.00
55010;BME280;40903;51.638;7.528;2023-05-12T00:28:37;100839.31;;;13.78;100.00
55010;BME280;40903;51.638;7.528;2023-05-12T00:31:02;100834.66;;;13.79;100.00
55010;BME280;40903;51.638;7.528;2023-05-12T00:33:28;100835.47;;;13.79;100.00
55010;BME280;40903;51.638;7.528;2023-05-12T00:35:54;100837.81;;;13.73;100.00
55010;BME280;40903;51.638;7.528;2023-05-12T00:38:19;100834.88;;;13.69;100.00
55010;BME280;40903;51.638;7.528;2023-05-12T00:40:44;100843.22;;;13.64;100.00
55010;BME280;40903;51.638;7.528;2023-05-12T00:43:09;100845.97;;;13.64;100.00
55010;BME280;40903;51.638;7.528;2023-05-12T00:45:35;100846.47;;;13.66;100.00
55010;BME280;40903;51.638;7.528;2023-05-12T00:48:01;100840.78;;;13.63;100.00
55010;BME280;40903;51.638;7.528;2023-05-12T00:50:27;100841.09;;;13.61;100.00
55010;BME280;40903;51.638;7.528;2023-05-12T00:52:53;100835.09;;;13.59;100.00
55010;BME280;40903;51.638;7.528;2023-05-12T00:55:18;100844.63;;;13.62;100.00
55010;BME280;40903;51.638;7.528;2023-05-12T00:57:44;100847.69;;;13.60;100.00
55010;BME280;40903;51.638;7.528;2023-05-12T01:00:09;100849.91;;;13.58;100.00
55010;BME280;40903;51.638;7.528;2023-05-12T01:02:35;100851.34;;;13.56;100.00
55010;BME280;40903;51.638;7.528;2023-05-12T01:05:01;100849.72;;;13.55;100.00
55010;BME280;40903;51.638;7.528;2023-05-12T01:07:26;100849.53;;;13.51;100.00
55010;BME280;40903;51.638;7.528;2023-05-12T01:09:55;100850.16;;;13.48;100.00
55010;BME280;40903;51.638;7.528;2023-05-12T01:12:21;100853.50;;;13.45;100.00
55010;BME280;40903;51.638;7.528;2023-05-12T01:14:47;100855.13;;;13.46;100.00
55010;BME280;40903;51.638;7.528;2023-05-12T01:17:12;100860.78;;;13.50;100.00
55010;BME280;40903;51.638;7.528;2023-05-12T01:19:42;100854.31;;;13.46;100.00
55010;BME280;40903;51.638;7.528;2023-05-12T01:22:08;100856.53;;;13.44;100.00
55010;BME280;40903;51.638;7.528;2023-05-12T01:24:35;100856.03;;;13.42;100.00
55010;BME280;40903;51.638;7.528;2023-05-12T01:27:02;100857.94;;;13.41;100.00
55010;BME280;40903;51.638;7.528;2023-05-12T01:29:28;100857.16;;;13.41;100.00
55010;BME280;40903;51.638;7.528;2023-05-12T01:31:54;100856.66;;;13.39;100.00
55010;BME280;40903;51.638;7.528;2023-05-12T01:34:20;100861.81;;;13.40;100.00
55010;BME280;40903;51.638;7.528;2023-05-12T01:36:45;100865.88;;;13.43;100.00
55010;BME280;40903;51.638;7.528;2023-05-12T01:39:10;100861.00;;;13.40;100.00
55010;BME280;40903;51.638;7.528;2023-05-12T01:41:37;100867.41;;;13.35;100.00
55010;BME280;40903;51.638;7.528;2023-05-12T01:44:02;100870.94;;;13.36;100.00
55010;BME280;40903;51.638;7.528;2023-05-12T01:46:27;100868.19;;;13.36;100.00
55010;BME280;40903;51.638;7.528;2023-05-12T01:48:55;100865.44;;;13.36;100.00
55010;BME280;40903;51.638;7.528;2023-05-12T01:51:21;100867.41;;;13.35;100.00
55010;BME280;40903;51.638;7.528;2023-05-12T01:53:46;100873.16;;;13.34;100.00
55010;BME280;40903;51.638;7.528;2023-05-12T01:56:11;100877.44;;;13.40;100.00
55010;BME280;40903;51.638;7.528;2023-05-12T01:58:37;100867.69;;;13.34;100.00
55010;BME280;40903;51.638;7.528;2023-05-12T02:01:02;100879.97;;;13.36;100.00
55010;BME280;40903;51.638;7.528;2023-05-12T02:03:27;100875.00;;;13.38;100.00
55010;BME280;40903;51.638;7.528;2023-05-12T02:05:53;100881.09;;;13.35;100.00
55010;BME280;40903;51.638;7.528;2023-05-12T02:08:18;100885.44;;;13.36;100.00
55010;BME280;40903;51.638;7.528;2023-05-12T02:10:43;100880.78;;;13.37;100.00
55010;BME280;40903;51.638;7.528;2023-05-12T02:13:08;100883.44;;;13.42;100.00
55010;BME280;40903;51.638;7.528;2023-05-12T02:15:34;100888.59;;;13.43;100.00
55010;BME280;40903;51.638;7.528;2023-05-12T02:17:59;100882.09;;;13.39;100.00
55010;BME280;40903;51.638;7.528;2023-05-12T02:20:24;100883.72;;;13.40;100.00
55010;BME280;40903;51.638;7.528;2023-05-12T02:22:49;100887.28;;;13.41;100.00
55010;BME280;40903;51.638;7.528;2023-05-12T02:25:15;100884.84;;;13.39;100.00
55010;BME280;40903;51.638;7.528;2023-05-12T02:27:40;100882.72;;;13.36;100.00
55010;BME280;40903;51.638;7.528;2023-05-12T02:30:06;100877.25;;;13.36;100.00
55010;BME280;40903;51.638;7.528;2023-05-12T02:32:31;100879.97;;;13.36;100.00
55010;BME280;40903;51.638;7.528;2023-05-12T02:34:57;100876.41;;;13.36;100.00
55010;BME280;40903;51.638;7.528;2023-05-12T02:37:22;100879.97;;;13.36;100.00
55010;BME280;40903;51.638;7.528;2023-05-12T02:39:47;100883.84;;;13.35;100.00
55010;BME280;40903;51.638;7.528;2023-05-12T02:42:13;100880.59;;;13.33;100.00
55010;BME280;40903;51.638;7.528;2023-05-12T02:44:38;100888.47;;;13.35;100.00
55010;BME280;40903;51.638;7.528;2023-05-12T02:47:03;100883.84;;;13.35;100.00
55010;BME280;40903;51.638;7.528;2023-05-12T02:49:28;100890.94;;;13.36;100.00
55010;BME280;40903;51.638;7.528;2023-05-12T02:51:54;100892.34;;;13.34;100.00
55010;BME280;40903;51.638;7.528;2023-05-12T02:54:20;100879.47;;;13.34;100.00
55010;BME280;40903;51.638;7.528;2023-05-12T02:56:45;100886.69;;;13.30;100.00
55010;BME280;40903;51.638;7.528;2023-05-12T02:59:10;100889.72;;;13.29;100.00
55010;BME280;40903;51.638;7.528;2023-05-12T03:01:36;100887.09;;;13.24;100.00
55010;BME280;40903;51.638;7.528;2023-05-12T03:04:01;100891.63;;;13.28;100.00
55010;BME280;40903;51.638;7.528;2023-05-12T03:06:26;100883.72;;;13.27;100.00
55010;BME280;40903;51.638;7.528;2023-05-12T03:08:51;100880.50;;;13.25;100.00
55010;BME280;40903;51.638;7.528;2023-05-12T03:11:19;100881.28;;;13.25;100.00
55010;BME280;40903;51.638;7.528;2023-05-12T03:13:45;100881.06;;;13.22;100.00
55010;BME280;40903;51.638;7.528;2023-05-12T03:16:10;100890.41;;;13.21;100.00
55010;BME280;40903;51.638;7.528;2023-05-12T03:18:36;100891.00;;;13.18;100.00
55010;BME280;40903;51.638;7.528;2023-05-12T03:21:01;100892.63;;;13.19;100.00
55010;BME280;40903;51.638;7.528;2023-05-12T03:23:27;100896.81;;;13.16;100.00
55010;BME280;40903;51.638;7.528;2023-05-12T03:25:52;100897.38;;;13.13;100.00
55010;BME280;40903;51.638;7.528;2023-05-12T03:28:18;100896.81;;;13.16;100.00
55010;BME280;40903;51.638;7.528;2023-05-12T03:30:43;100899.34;;;13.13;100.00
55010;BME280;40903;51.638;7.528;2023-05-12T03:33:08;100902.88;;;13.13;100.00
55010;BME280;40903;51.638;7.528;2023-05-12T03:35:33;100902.88;;;13.13;100.00
55010;BME280;40903;51.638;7.528;2023-05-12T03:37:59;100901.25;;;13.12;100.00
55010;BME280;40903;51.638;7.528;2023-05-12T03:40:24;100904.81;;;13.13;100.00
55010;BME280;40903;51.638;7.528;2023-05-12T03:42:49;100895.25;;;13.10;100.00
55010;BME280;40903;51.638;7.528;2023-05-12T03:45:14;100901.25;;;13.12;100.00
55010;BME280;40903;51.638;7.528;2023-05-12T03:47:40;100905.31;;;13.15;100.00
55010;BME280;40903;51.638;7.528;2023-05-12T03:50:06;100902.56;;;13.15;100.00
55010;BME280;40903;51.638;7.528;2023-05-12T03:52:32;100903.47;;;13.10;100.00
55010;BME280;40903;51.638;7.528;2023-05-12T03:54:57;100904.00;;;13.12;100.00
55010;BME280;40903;51.638;7.528;2023-05-12T03:57:22;100908.97;;;13.10;100.00
55010;BME280;40903;51.638;7.528;2023-05-12T03:59:47;100909.97;;;13.14;100.00
55010;BME280;40903;51.638;7.528;2023-05-12T04:02:13;100910.56;;;13.11;100.00
55010;BME280;40903;51.638;7.528;2023-05-12T04:04:38;100911.69;;;13.10;100.00
55010;BME280;40903;51.638;7.528;2023-05-12T04:07:03;100913.13;;;13.08;100.00
55010;BME280;40903;51.638;7.528;2023-05-12T04:09:32;100924.59;;;13.10;100.00
55010;BME280;40903;51.638;7.528;2023-05-12T04:11:57;100923.47;;;13.11;100.00
55010;BME280;40903;51.638;7.528;2023-05-12T04:14:22;100921.63;;;13.06;100.00
55010;BME280;40903;51.638;7.528;2023-05-12T04:16:48;100927.63;;;13.08;100.00
55010;BME280;40903;51.638;7.528;2023-05-12T04:19:13;100927.63;;;13.08;100.00
55010;BME280;40903;51.638;7.528;2023-05-12T04:21:38;100930.84;;;13.10;100.00
55010;BME280;40903;51.638;7.528;2023-05-12T04:24:04;100939.69;;;13.07;100.00
55010;BME280;40903;51.638;7.528;2023-05-12T04:26:29;100938.16;;;13.01;100.00
55010;BME280;40903;51.638;7.528;2023-05-12T04:28:54;100943.03;;;13.04;100.00
55010;BME280;40903;51.638;7.528;2023-05-12T04:31:20;100948.19;;;13.06;100.00
55010;BME280;40903;51.638;7.528;2023-05-12T04:33:45;100942.13;;;13.09;100.00
55010;BME280;40903;51.638;7.528;2023-05-12T04:36:10;100958.94;;;13.02;100.00
55010;BME280;40903;51.638;7.528;2023-05-12T04:38:37;100953.97;;;13.04;100.00
55010;BME280;40903;51.638;7.528;2023-05-12T04:41:02;100955.59;;;13.05;100.00
55010;BME280;40903;51.638;7.528;2023-05-12T04:43:28;100953.38;;;13.07;100.00
55010;BME280;40903;51.638;7.528;2023-05-12T04:45:53;100965.34;;;13.11;100.00
55010;BME280;40903;51.638;7.528;2023-05-12T04:48:19;100967.06;;;13.07;100.00
55010;BME280;40903;51.638;7.528;2023-05-12T04:50:45;100969.81;;;13.07;100.00
55010;BME280;40903;51.638;7.528;2023-05-12T04:53:10;100977.41;;;13.10;100.00
55010;BME280;40903;51.638;7.528;2023-05-12T04:55:37;100972.94;;;13.14;100.00
55010;BME280;40903;51.638;7.528;2023-05-12T04:58:02;100995.69;;;13.15;100.00
55010;BME280;40903;51.638;7.528;2023-05-12T05:00:27;100988.47;;;13.19;100.00
55010;BME280;40903;51.638;7.528;2023-05-12T05:02:53;100994.84;;;13.14;100.00
55010;BME280;40903;51.638;7.528;2023-05-12T05:05:18;100992.25;;;13.23;100.00
55010;BME280;40903;51.638;7.528;2023-05-12T05:07:43;101007.88;;;13.22;100.00
55010;BME280;40903;51.638;7.528;2023-05-12T05:10:08;101002.91;;;13.24;100.00
55010;BME280;40903;51.638;7.528;2023-05-12T05:12:34;101005.97;;;13.23;100.00
55010;BME280;40903;51.638;7.528;2023-05-12T05:14:59;101012.66;;;13.30;100.00
55010;BME280;40903;51.638;7.528;2023-05-12T05:17:25;101010.34;;;13.37;100.00
55010;BME280;40903;51.638;7.528;2023-05-12T05:19:50;101011.16;;;13.38;100.00
55010;BME280;40903;51.638;7.528;2023-05-12T05:22:15;101022.81;;;13.43;100.00
55010;BME280;40903;51.638;7.528;2023-05-12T05:24:40;101020.63;;;13.45;100.00
55010;BME280;40903;51.638;7.528;2023-05-12T05:27:06;101031.25;;;13.47;100.00
55010;BME280;40903;51.638;7.528;2023-05-12T05:29:31;101025.16;;;13.50;100.00
55010;BME280;40903;51.638;7.528;2023-05-12T05:31:56;101030.06;;;13.53;100.00
55010;BME280;40903;51.638;7.528;2023-05-12T05:34:22;101027.50;;;13.56;100.00
55010;BME280;40903;51.638;7.528;2023-05-12T05:36:47;101033.81;;;13.57;100.00
55010;BME280;40903;51.638;7.528;2023-05-12T05:39:12;101041.03;;;13.66;100.00
55010;BME280;40903;51.638;7.528;2023-05-12T05:41:37;101044.78;;;13.70;100.00
55010;BME280;40903;51.638;7.528;2023-05-12T05:44:03;101045.81;;;13.74;100.00
55010;BME280;40903;51.638;7.528;2023-05-12T05:46:28;101044.91;;;13.78;100.00
55010;BME280;40903;51.638;7.528;2023-05-12T05:48:53;101055.34;;;13.76;100.00
55010;BME280;40903;51.638;7.528;2023-05-12T05:51:18;101054.44;;;13.81;100.00
55010;BME280;40903;51.638;7.528;2023-05-12T05:53:44;101053.03;;;13.83;100.00
55010;BME280;40903;51.638;7.528;2023-05-12T05:56:09;101065.31;;;13.86;100.00
55010;BME280;40903;51.638;7.528;2023-05-12T05:58:34;101061.28;;;13.83;100.00
55010;BME280;40903;51.638;7.528;2023-05-12T06:00:59;101057.81;;;13.91;100.00
55010;BME280;40903;51.638;7.528;2023-05-12T06:03:25;101058.72;;;13.87;100.00
55010;BME280;40903;51.638;7.528;2023-05-12T06:05:50;101072.84;;;13.94;100.00
55010;BME280;40903;51.638;7.528;2023-05-12T06:08:15;101073.25;;;14.01;100.00
55010;BME280;40903;51.638;7.528;2023-05-12T06:10:40;101072.63;;;14.04;100.00
55010;BME280;40903;51.638;7.528;2023-05-12T06:13:06;101077.41;;;14.12;100.00
55010;BME280;40903;51.638;7.528;2023-05-12T06:15:31;101076.00;;;14.14;100.00
55010;BME280;40903;51.638;7.528;2023-05-12T06:17:56;101081.41;;;14.19;100.00
55010;BME280;40903;51.638;7.528;2023-05-12T06:20:21;101079.66;;;14.23;100.00
55010;BME280;40903;51.638;7.528;2023-05-12T06:22:47;101089.13;;;14.31;100.00
55010;BME280;40903;51.638;7.528;2023-05-12T06:25:12;101090.03;;;14.40;100.00
55010;BME280;40903;51.638;7.528;2023-05-12T06:27:37;101092.16;;;14.43;100.00
55010;BME280;40903;51.638;7.528;2023-05-12T06:30:03;101093.88;;;14.52;100.00
55010;BME280;40903;51.638;7.528;2023-05-12T06:32:28;101098.94;;;14.59;100.00
55010;BME280;40903;51.638;7.528;2023-05-12T06:34:53;101102.31;;;14.56;100.00
55010;BME280;40903;51.638;7.528;2023-05-12T06:37:19;101096.09;;;14.64;100.00
55010;BME280;40903;51.638;7.528;2023-05-12T06:39:44;101094.47;;;14.63;100.00
55010;BME280;40903;51.638;7.528;2023-05-12T06:42:09;101102.69;;;14.63;100.00
55010;BME280;40903;51.638;7.528;2023-05-12T06:44:35;101099.88;;;14.68;100.00
55010;BME280;40903;51.638;7.528;2023-05-12T06:47:00;101104.22;;;14.69;100.00
55010;BME280;40903;51.638;7.528;2023-05-12T06:49:25;101108.28;;;14.71;100.00
55010;BME280;40903;51.638;7.528;2023-05-12T06:51:54;101108.28;;;14.71;100.00
55010;BME280;40903;51.638;7.528;2023-05-12T06:54:19;101117.13;;;14.68;100.00
55010;BME280;40903;51.638;7.528;2023-05-12T06:56:44;101117.84;;;14.74;100.00
55010;BME280;40903;51.638;7.528;2023-05-12T06:59:09;101114.47;;;14.77;100.00
55010;BME280;40903;51.638;7.528;2023-05-12T07:01:35;101117.28;;;14.85;100.00
55010;BME280;40903;51.638;7.528;2023-05-12T07:04:00;101120.75;;;14.91;100.00
55010;BME280;40903;51.638;7.528;2023-05-12T07:06:25;101121.44;;;14.96;100.00
55010;BME280;40903;51.638;7.528;2023-05-12T07:08:52;101123.47;;;15.04;100.00
55010;BME280;40903;51.638;7.528;2023-05-12T07:11:17;101116.66;;;15.02;100.00
55010;BME280;40903;51.638;7.528;2023-05-12T07:13:46;101121.53;;;15.05;100.00
55010;BME280;40903;51.638;7.528;2023-05-12T07:16:12;101130.47;;;15.10;100.00
55010;BME280;40903;51.638;7.528;2023-05-12T07:18:37;101124.75;;;15.07;100.00
55010;BME280;40903;51.638;7.528;2023-05-12T07:21:03;101126.28;;;15.13;100.00
55010;BME280;40903;51.638;7.528;2023-05-12T07:23:28;101128.22;;;15.12;100.00
55010;BME280;40903;51.638;7.528;2023-05-12T07:25:53;101136.66;;;15.16;100.00
55010;BME280;40903;51.638;7.528;2023-05-12T07:28:19;101134.91;;;15.20;100.00
55010;BME280;40903;51.638;7.528;2023-05-12T07:30:44;101132.09;;;15.11;100.00
55010;BME280;40903;51.638;7.528;2023-05-12T07:33:09;101138.78;;;15.19;100.00
55010;BME280;40903;51.638;7.528;2023-05-12T07:35:34;101134.69;;;15.16;100.00
55010;BME280;40903;51.638;7.528;2023-05-12T07:38:00;101139.47;;;15.24;100.00
55010;BME280;40903;51.638;7.528;2023-05-12T07:40:27;101143.44;;;15.32;100.00
55010;BME280;40903;51.638;7.528;2023-05-12T07:42:52;101144.28;;;15.32;100.00
55010;BME280;40903;51.638;7.528;2023-05-12T07:45:17;101141.53;;;15.32;100.00
55010;BME280;40903;51.638;7.528;2023-05-12T07:47:47;101145.34;;;15.45;100.00
55010;BME280;40903;51.638;7.528;2023-05-12T07:50:12;101146.47;;;15.44;100.00
55010;BME280;40903;51.638;7.528;2023-05-12T07:52:44;101144.41;;;15.49;100.00
55010;BME280;40903;51.638;7.528;2023-05-12T07:55:09;101149.13;;;15.57;100.00
55010;BME280;40903;51.638;7.528;2023-05-12T07:57:35;101141.72;;;15.58;100.00
55010;BME280;40903;51.638;7.528;2023-05-12T08:00:00;101154.69;;;15.66;100.00
55010;BME280;40903;51.638;7.528;2023-05-12T08:02:26;101148.81;;;15.80;100.00
55010;BME280;40903;51.638;7.528;2023-05-12T08:04:51;101157.78;;;15.94;100.00
55010;BME280;40903;51.638;7.528;2023-05-12T08:07:16;101149.88;;;15.93;100.00
55010;BME280;40903;51.638;7.528;2023-05-12T08:09:42;101152.97;;;16.00;100.00
55010;BME280;40903;51.638;7.528;2023-05-12T08:12:07;101163.06;;;16.13;100.00
55010;BME280;40903;51.638;7.528;2023-05-12T08:14:32;101157.25;;;16.14;100.00
55010;BME280;40903;51.638;7.528;2023-05-12T08:16:57;101155.84;;;16.25;100.00
55010;BME280;40903;51.638;7.528;2023-05-12T08:19:23;101159.97;;;16.36;100.00
55010;BME280;40903;51.638;7.528;2023-05-12T08:21:48;101162.94;;;16.48;100.00
55010;BME280;40903;51.638;7.528;2023-05-12T08:24:13;101163.66;;;16.62;100.00
55010;BME280;40903;51.638;7.528;2023-05-12T08:26:38;101166.44;;;16.79;99.84
55010;BME280;40903;51.638;7.528;2023-05-12T08:29:03;101165.81;;;16.91;96.03
55010;BME280;40903;51.638;7.528;2023-05-12T08:31:31;101165.66;;;16.96;92.98
55010;BME280;40903;51.638;7.528;2023-05-12T08:33:57;101161.81;;;17.05;94.50
55010;BME280;40903;51.638;7.528;2023-05-12T08:36:22;101169.41;;;17.17;93.57
55010;BME280;40903;51.638;7.528;2023-05-12T08:38:48;101166.50;;;17.30;92.02
55010;BME280;40903;51.638;7.528;2023-05-12T08:41:21;101171.41;;;17.50;91.26
55010;BME280;40903;51.638;7.528;2023-05-12T08:43:50;101179.19;;;17.40;87.97
55010;BME280;40903;51.638;7.528;2023-05-12T08:46:15;101177.91;;;17.46;88.62
55010;BME280;40903;51.638;7.528;2023-05-12T08:48:40;101173.66;;;17.74;89.30
55010;BME280;40903;51.638;7.528;2023-05-12T08:51:07;101177.09;;;18.25;87.89
55010;BME280;40903;51.638;7.528;2023-05-12T08:53:37;101171.97;;;18.61;86.22
55010;BME280;40903;51.638;7.528;2023-05-12T08:56:04;101179.69;;;18.76;83.49
55010;BME280;40903;51.638;7.528;2023-05-12T08:58:30;101181.09;;;18.82;81.61
55010;BME280;40903;51.638;7.528;2023-05-12T09:00:55;101187.44;;;18.82;80.96
55010;BME280;40903;51.638;7.528;2023-05-12T09:03:21;101184.53;;;18.79;80.14
55010;BME280;40903;51.638;7.528;2023-05-12T09:05:47;101183.19;;;18.85;82.84
55010;BME280;40903;51.638;7.528;2023-05-12T09:08:12;101188.44;;;18.78;81.29
55010;BME280;40903;51.638;7.528;2023-05-12T09:10:38;101188.13;;;18.79;82.16
55010;BME280;40903;51.638;7.528;2023-05-12T09:13:10;101185.88;;;18.73;81.47
55010;BME280;40903;51.638;7.528;2023-05-12T09:15:38;101180.56;;;18.88;82.23
55010;BME280;40903;51.638;7.528;2023-05-12T09:18:05;101179.84;;;19.00;79.78
55010;BME280;40903;51.638;7.528;2023-05-12T09:20:30;101184.19;;;19.09;80.85
55010;BME280;40903;51.638;7.528;2023-05-12T09:22:55;101186.13;;;19.09;77.49
55010;BME280;40903;51.638;7.528;2023-05-12T09:25:22;101178.22;;;19.28;78.83
55010;BME280;40903;51.638;7.528;2023-05-12T09:27:48;101184.22;;;19.30;76.15
55010;BME280;40903;51.638;7.528;2023-05-12T09:30:14;101182.75;;;19.32;77.52
55010;BME280;40903;51.638;7.528;2023-05-12T09:32:39;101187.13;;;19.33;75.75
55010;BME280;40903;51.638;7.528;2023-05-12T09:35:05;101180.44;;;19.55;75.34
55010;BME280;40903;51.638;7.528;2023-05-12T09:37:32;101179.75;;;19.78;74.26
55010;BME280;40903;51.638;7.528;2023-05-12T09:40:06;101188.19;;;19.82;72.31
55010;BME280;40903;51.638;7.528;2023-05-12T09:42:32;101197.28;;;19.82;71.34
55010;BME280;40903;51.638;7.528;2023-05-12T09:45:01;101186.19;;;20.02;72.48
55010;BME280;40903;51.638;7.528;2023-05-12T09:47:27;101184.84;;;20.08;72.05
55010;BME280;40903;51.638;7.528;2023-05-12T09:49:57;101186.00;;;20.19;70.67
55010;BME280;40903;51.638;7.528;2023-05-12T09:52:23;101179.38;;;20.44;73.19
55010;BME280;40903;51.638;7.528;2023-05-12T09:54:48;101179.16;;;20.73;74.25
55010;BME280;40903;51.638;7.528;2023-05-12T09:57:14;101185.53;;;20.86;70.63
55010;BME280;40903;51.638;7.528;2023-05-12T09:59:40;101185.28;;;21.03;68.98
55010;BME280;40903;51.638;7.528;2023-05-12T10:02:08;101185.81;;;21.32;69.77
55010;BME280;40903;51.638;7.528;2023-05-12T10:04:42;101185.78;;;21.44;69.23
55010;BME280;40903;51.638;7.528;2023-05-12T10:07:10;101180.47;;;21.39;65.96
55010;BME280;40903;51.638;7.528;2023-05-12T10:09:37;101184.97;;;21.44;67.38
55010;BME280;40903;51.638;7.528;2023-05-12T10:12:06;101187.16;;;21.50;66.91
55010;BME280;40903;51.638;7.528;2023-05-12T10:14:31;101184.34;;;21.62;67.63
55010;BME280;40903;51.638;7.528;2023-05-12T10:16:58;101177.16;;;21.73;67.85
55010;BME280;40903;51.638;7.528;2023-05-12T10:19:24;101181.78;;;21.69;68.61
55010;BME280;40903;51.638;7.528;2023-05-12T10:21:49;101185.84;;;21.72;64.48
55010;BME280;40903;51.638;7.528;2023-05-12T10:24:14;101189.22;;;21.65;63.75
55010;BME280;40903;51.638;7.528;2023-05-12T10:26:41;101175.97;;;21.86;66.88
55010;BME280;40903;51.638;7.528;2023-05-12T10:29:06;101177.19;;;21.89;66.99
55010;BME280;40903;51.638;7.528;2023-05-12T10:31:32;101181.13;;;21.88;62.52
55010;BME280;40903;51.638;7.528;2023-05-12T10:34:00;101180.97;;;21.96;65.57
55010;BME280;40903;51.638;7.528;2023-05-12T10:36:26;101182.34;;;22.02;62.43
55010;BME280;40903;51.638;7.528;2023-05-12T10:38:51;101174.56;;;22.23;65.84
55010;BME280;40903;51.638;7.528;2023-05-12T10:41:27;101171.28;;;22.33;67.04
55010;BME280;40903;51.638;7.528;2023-05-12T10:43:53;101171.47;;;22.40;65.09
55010;BME280;40903;51.638;7.528;2023-05-12T10:46:19;101174.91;;;22.21;62.44
55010;BME280;40903;51.638;7.528;2023-05-12T10:49:07;101166.69;;;22.25;63.57
55010;BME280;40903;51.638;7.528;2023-05-12T10:51:33;101176.81;;;22.02;60.13
55010;BME280;40903;51.638;7.528;2023-05-12T10:54:05;101169.81;;;22.08;64.35
55010;BME280;40903;51.638;7.528;2023-05-12T10:59:13;101159.88;;;22.38;62.46
55010;BME280;40903;51.638;7.528;2023-05-12T11:01:39;101170.03;;;22.61;61.32
55010;BME280;40903;51.638;7.528;2023-05-12T11:06:30;101168.69;;;22.86;58.46
55010;BME280;40903;51.638;7.528;2023-05-12T11:08:56;101150.56;;;23.27;66.00
55010;BME280;40903;51.638;7.528;2023-05-12T11:11:22;101150.56;;;23.65;62.96
55010;BME280;40903;51.638;7.528;2023-05-12T11:13:47;101150.88;;;23.98;59.94
55010;BME280;40903;51.638;7.528;2023-05-12T11:16:12;101157.09;;;24.32;56.58
55010;BME280;40903;51.638;7.528;2023-05-12T11:18:38;101153.94;;;24.12;54.67
55010;BME280;40903;51.638;7.528;2023-05-12T11:21:09;101151.50;;;24.32;58.00
55010;BME280;40903;51.638;7.528;2023-05-12T11:23:36;101155.91;;;24.33;56.99
55010;BME280;40903;51.638;7.528;2023-05-12T11:26:01;101153.22;;;24.40;54.29
55010;BME280;40903;51.638;7.528;2023-05-12T11:28:37;101152.13;;;24.45;55.95
55010;BME280;40903;51.638;7.528;2023-05-12T11:31:02;101165.91;;;24.57;53.21
55010;BME280;40903;51.638;7.528;2023-05-12T11:33:28;101162.59;;;24.51;51.71
55010;BME280;40903;51.638;7.528;2023-05-12T11:35:55;101161.06;;;24.54;50.47
55010;BME280;40903;51.638;7.528;2023-05-12T11:38:21;101162.56;;;24.07;52.21
55010;BME280;40903;51.638;7.528;2023-05-12T11:40:48;101163.97;;;23.97;52.91
55010;BME280;40903;51.638;7.528;2023-05-12T11:43:13;101162.19;;;23.86;53.08
55010;BME280;40903;51.638;7.528;2023-05-12T11:45:43;101148.88;;;23.98;55.57
55010;BME280;40903;51.638;7.528;2023-05-12T11:48:10;101161.28;;;23.82;52.54
55010;BME280;40903;51.638;7.528;2023-05-12T11:50:37;101155.47;;;24.09;55.24
55010;BME280;40903;51.638;7.528;2023-05-12T11:53:03;101163.09;;;24.34;52.22
55010;BME280;40903;51.638;7.528;2023-05-12T11:55:28;101158.81;;;24.63;55.82
55010;BME280;40903;51.638;7.528;2023-05-12T11:57:59;101158.09;;;24.66;53.21
55010;BME280;40903;51.638;7.528;2023-05-12T12:00:28;101168.06;;;24.22;50.12
55010;BME280;40903;51.638;7.528;2023-05-12T12:03:04;101161.22;;;24.42;51.74
55010;BME280;40903;51.638;7.528;2023-05-12T12:05:29;101160.88;;;24.21;51.02
55010;BME280;40903;51.638;7.528;2023-05-12T12:08:02;101162.72;;;23.95;53.91
55010;BME280;40903;51.638;7.528;2023-05-12T12:10:28;101162.59;;;23.88;52.14
55010;BME280;40903;51.638;7.528;2023-05-12T12:12:53;101157.41;;;23.86;54.18
55010;BME280;40903;51.638;7.528;2023-05-12T12:15:18;101150.31;;;24.11;57.27
55010;BME280;40903;51.638;7.528;2023-05-12T12:17:43;101160.88;;;24.21;54.49
55010;BME280;40903;51.638;7.528;2023-05-12T12:20:09;101161.06;;;24.31;53.55
55010;BME280;40903;51.638;7.528;2023-05-12T12:22:34;101161.41;;;24.30;53.73
55010;BME280;40903;51.638;7.528;2023-05-12T12:25:00;101163.78;;;24.28;52.92
55010;BME280;40903;51.638;7.528;2023-05-12T12:27:25;101156.22;;;24.51;53.09
55010;BME280;40903;51.638;7.528;2023-05-12T12:29:50;101169.34;;;24.28;49.92
55010;BME280;40903;51.638;7.528;2023-05-12T12:32:15;101146.81;;;24.59;53.19
55010;BME280;40903;51.638;7.528;2023-05-12T12:34:41;101157.94;;;24.81;49.51
55010;BME280;40903;51.638;7.528;2023-05-12T12:37:08;101160.84;;;24.88;50.50
55010;BME280;40903;51.638;7.528;2023-05-12T12:39:34;101160.28;;;24.79;51.36
55010;BME280;40903;51.638;7.528;2023-05-12T12:41:59;101160.38;;;24.16;49.33